Anderson, Missouri
Current Conditions -  °F | °C
As of 1:35 PM on Wednesday 17 Dec 2014 (Local Time) from KGMJ Reporting Station
Light Snow Light Snow  
Wind Chill: 36°   Ceiling: 7000
Heat Index: 36°   Visibility: 5mi
Dew Point: 32°   Wind: 3mph
Humidity: 87%   Direction: 100°E
Pressure: 30.25"   Gusts: NA
Location:  36.65°N, 94.44°W
Report Text: KGMJ 171935Z AUTO 10003KT 5SM -SN OVC070 02/00 A3025 RMK AO2 LTG DSNT SW
Loading
Personal Weather Stations






























Interactive Weather Map New forecast layout! Learn more

10-Day Weather Forecast

Advertisements
Track Severe Weather on mobile